Time;durP1;ratioP1;P1;durP2;ratioP2;P2;SDS_P1;SDS_P2;PMS_P1;PMS_P2;Temp;Humidity;BMP_temperature;BMP_pressure;BME280_temperature;BME280_humidity;BME280_pressure;Samples;Min_cycle;Max_cycle;Signal;HPM_P1;HPM_P2
2022/12/10 00:02:58;;;;;;;10.65;8.15;;;;;;;;;;8340307;28;20048;-63
2022/12/10 00:06:58;;;;;;;15.05;10.00;;;;;;;;;;8342048;28;20031;-63
2022/12/10 00:10:58;;;;;;;10.70;8.27;;;;;;;;;;8342309;28;20028;-63
2022/12/10 00:14:58;;;;;;;9.73;7.55;;;;;;;;;;8342406;28;20059;-63
2022/12/10 00:18:59;;;;;;;10.63;7.82;;;;;;;;;;8341037;28;20039;-63
2022/12/10 00:22:59;;;;;;;9.88;7.05;;;;;;;;;;8343192;28;20420;-63
2022/12/10 00:26:59;;;;;;;10.55;7.43;;;;;;;;;;8341490;28;20067;-66
2022/12/10 00:31:03;;;;;;;10.43;7.40;;;;;;;;;;8340658;28;20029;-63
2022/12/10 00:35:04;;;;;;;10.40;7.20;;;;;;;;;;8341224;28;20078;-63
2022/12/10 00:39:04;;;;;;;9.07;6.63;;;;;;;;;;8342488;28;20032;-63
2022/12/10 00:43:05;;;;;;;8.00;6.72;;;;;;;;;;8341111;28;20763;-62
2022/12/10 00:47:05;;;;;;;9.77;6.15;;;;;;;;;;8339966;28;20025;-62
2022/12/10 00:51:07;;;;;;;9.50;6.95;;;;;;;;;;8337590;28;20422;-63
2022/12/10 00:55:07;;;;;;;11.43;7.20;;;;;;;;;;8338217;28;20898;-63
2022/12/10 00:59:08;;;;;;;8.20;6.72;;;;;;;;;;8340376;28;20527;-63
2022/12/10 01:03:08;;;;;;;12.90;6.82;;;;;;;;;;8340441;28;20033;-63
2022/12/10 01:07:10;;;;;;;8.55;6.40;;;;;;;;;;8343756;28;20098;-63
2022/12/10 01:11:11;;;;;;;7.95;6.32;;;;;;;;;;8340354;28;20025;-62
2022/12/10 01:15:11;;;;;;;8.90;6.18;;;;;;;;;;8339222;28;20192;-63
2022/12/10 01:19:12;;;;;;;10.77;7.63;;;;;;;;;;8339460;28;20041;-63
2022/12/10 01:23:13;;;;;;;9.05;6.63;;;;;;;;;;8340668;28;20040;-63
2022/12/10 01:27:13;;;;;;;10.10;7.75;;;;;;;;;;8339803;28;20154;-64
2022/12/10 01:31:15;;;;;;;10.00;7.72;;;;;;;;;;8338028;28;20060;-63
2022/12/10 01:35:15;;;;;;;9.40;7.18;;;;;;;;;;8338955;28;20325;-63
2022/12/10 01:39:16;;;;;;;10.23;7.97;;;;;;;;;;8337366;28;20120;-63
2022/12/10 01:43:16;;;;;;;9.82;6.72;;;;;;;;;;8339048;28;20044;-63
2022/12/10 01:47:16;;;;;;;9.50;6.72;;;;;;;;;;8339143;28;20063;-63
2022/12/10 01:51:17;;;;;;;14.43;6.50;;;;;;;;;;8339671;28;20777;-64
2022/12/10 01:55:36;;;;;;;9.60;7.33;;;;;;;;;;8337345;28;20614;-65
2022/12/10 01:59:36;;;;;;;11.85;7.15;;;;;;;;;;8339209;28;20266;-63
2022/12/10 02:03:45;;;;;;;10.30;5.97;;;;;;;;;;8340807;28;20036;-63
2022/12/10 02:08:08;;;;;;;8.32;6.45;;;;;;;;;;8338792;28;20074;-63
2022/12/10 02:12:23;;;;;;;7.75;5.70;;;;;;;;;;8329303;28;20687;-63
2022/12/10 02:16:29;;;;;;;8.98;6.50;;;;;;;;;;8337111;28;20735;-63
2022/12/10 02:20:31;;;;;;;8.48;6.68;;;;;;;;;;8337906;28;20021;-64
2022/12/10 02:24:33;;;;;;;8.32;6.35;;;;;;;;;;8336999;28;20025;-63
2022/12/10 02:29:01;;;;;;;9.10;6.70;;;;;;;;;;8337285;28;20498;-63
2022/12/10 02:33:02;;;;;;;8.50;6.35;;;;;;;;;;8314133;28;20281;-64
2022/12/10 02:37:07;;;;;;;10.48;7.20;;;;;;;;;;8339289;28;20090;-63
2022/12/10 02:41:12;;;;;;;9.02;7.25;;;;;;;;;;8338681;28;20040;-64
2022/12/10 02:45:13;;;;;;;9.98;7.45;;;;;;;;;;8337257;28;20094;-63
2022/12/10 02:49:14;;;;;;;10.20;7.25;;;;;;;;;;8338132;28;20029;-63
2022/12/10 02:53:14;;;;;;;9.93;7.80;;;;;;;;;;8337072;28;20025;-63
2022/12/10 02:57:24;;;;;;;9.68;7.28;;;;;;;;;;8339965;28;20024;-63
2022/12/10 03:01:27;;;;;;;11.57;6.95;;;;;;;;;;8337672;28;20040;-63
2022/12/10 03:05:33;;;;;;;8.20;6.57;;;;;;;;;;8338424;28;20691;-62
2022/12/10 03:09:40;;;;;;;9.90;7.10;;;;;;;;;;8337472;28;20028;-63
2022/12/10 03:13:40;;;;;;;11.00;7.18;;;;;;;;;;8336435;28;20136;-63
2022/12/10 03:17:41;;;;;;;10.05;7.38;;;;;;;;;;8335788;28;20037;-63
2022/12/10 03:21:42;;;;;;;8.68;6.75;;;;;;;;;;8339538;28;20029;-63
2022/12/10 03:25:44;;;;;;;10.05;7.90;;;;;;;;;;8341735;28;20432;-64
2022/12/10 03:29:49;;;;;;;11.40;8.65;;;;;;;;;;8344152;28;20646;-64
2022/12/10 03:33:50;;;;;;;11.63;8.07;;;;;;;;;;8342475;28;20040;-63
2022/12/10 03:37:50;;;;;;;13.75;8.95;;;;;;;;;;8342561;28;20039;-64
2022/12/10 03:41:50;;;;;;;11.40;8.32;;;;;;;;;;8342177;28;20158;-63
2022/12/10 03:45:53;;;;;;;10.07;8.10;;;;;;;;;;8342885;28;20775;-63
2022/12/10 03:49:53;;;;;;;11.35;8.07;;;;;;;;;;8341152;28;20139;-62
2022/12/10 03:53:53;;;;;;;13.18;8.38;;;;;;;;;;8342225;28;20032;-64
2022/12/10 03:57:53;;;;;;;10.60;8.20;;;;;;;;;;8341708;28;20501;-62
2022/12/10 04:01:54;;;;;;;12.93;8.65;;;;;;;;;;8341838;28;20037;-63
2022/12/10 04:05:54;;;;;;;11.73;7.80;;;;;;;;;;8343134;28;20666;-63
2022/12/10 04:09:54;;;;;;;10.90;8.27;;;;;;;;;;8341262;28;20031;-62
2022/12/10 04:18:33;;;;;;;13.10;8.93;;;;;;;;;;8268824;28;20277;-63
2022/12/10 04:26:52;;;;;;;10.68;8.35;;;;;;;;;;8341113;28;20083;-63
2022/12/10 04:30:53;;;;;;;12.02;8.48;;;;;;;;;;8341289;28;20045;-63
2022/12/10 04:34:53;;;;;;;12.05;8.55;;;;;;;;;;8341289;28;20041;-63
2022/12/10 04:38:54;;;;;;;11.05;8.27;;;;;;;;;;8338112;28;20036;-65
2022/12/10 04:42:54;;;;;;;9.95;7.95;;;;;;;;;;8340168;28;20106;-62
2022/12/10 04:46:55;;;;;;;11.07;7.90;;;;;;;;;;8339144;28;20045;-63
2022/12/10 04:50:56;;;;;;;11.23;7.70;;;;;;;;;;8342025;28;20021;-64
2022/12/10 04:54:56;;;;;;;11.13;8.07;;;;;;;;;;8338799;28;20044;-63
2022/12/10 04:58:57;;;;;;;11.07;7.97;;;;;;;;;;8338344;28;20029;-62
2022/12/10 05:02:58;;;;;;;10.25;7.90;;;;;;;;;;8338121;28;20779;-63
2022/12/10 05:06:58;;;;;;;10.50;8.00;;;;;;;;;;8339143;28;20028;-63
2022/12/10 05:11:05;;;;;;;10.15;7.50;;;;;;;;;;8337912;28;20064;-63
2022/12/10 05:15:06;;;;;;;9.25;6.97;;;;;;;;;;8340313;28;20025;-63
2022/12/10 05:19:07;;;;;;;10.30;7.32;;;;;;;;;;8338562;28;20029;-62
2022/12/10 05:27:30;;;;;;;11.15;6.85;;;;;;;;;;8338806;28;20083;-63
2022/12/10 05:31:31;;;;;;;11.27;7.00;;;;;;;;;;8338783;28;20033;-62
2022/12/10 05:35:31;;;;;;;8.50;6.60;;;;;;;;;;8338173;28;20271;-63
2022/12/10 05:39:31;;;;;;;9.60;6.63;;;;;;;;;;8337414;28;20021;-62
2022/12/10 05:43:31;;;;;;;8.40;6.80;;;;;;;;;;8336114;28;20028;-63
2022/12/10 05:47:32;;;;;;;8.57;6.57;;;;;;;;;;8335947;28;20087;-63
2022/12/10 05:51:33;;;;;;;7.65;6.25;;;;;;;;;;8339012;28;20101;-63
2022/12/10 05:55:33;;;;;;;8.82;6.63;;;;;;;;;;8335867;28;21082;-63
2022/12/10 05:59:34;;;;;;;8.45;6.30;;;;;;;;;;8337769;28;20035;-63
2022/12/10 06:03:34;;;;;;;7.72;6.55;;;;;;;;;;8340839;28;20047;-64
2022/12/10 06:07:34;;;;;;;8.20;6.57;;;;;;;;;;8338624;28;20948;-63
2022/12/10 06:11:34;;;;;;;7.65;6.15;;;;;;;;;;8339594;28;20735;-63
2022/12/10 06:15:37;;;;;;;7.63;6.05;;;;;;;;;;8338986;28;20052;-63
2022/12/10 06:19:38;;;;;;;6.50;5.57;;;;;;;;;;8339137;28;20012;-63
2022/12/10 06:23:38;;;;;;;7.85;5.65;;;;;;;;;;8340007;28;20607;-63
2022/12/10 06:27:39;;;;;;;8.45;5.75;;;;;;;;;;8340561;28;20620;-63
2022/12/10 06:31:39;;;;;;;9.32;6.53;;;;;;;;;;8337819;28;20072;-63
2022/12/10 06:35:40;;;;;;;9.00;6.50;;;;;;;;;;8338974;28;20029;-63
2022/12/10 06:39:40;;;;;;;8.32;5.80;;;;;;;;;;8338444;28;20053;-63
2022/12/10 06:43:40;;;;;;;8.07;5.53;;;;;;;;;;8338360;28;20046;-64
2022/12/10 06:47:41;;;;;;;7.25;5.55;;;;;;;;;;8335557;28;20272;-63
2022/12/10 06:51:41;;;;;;;10.40;5.68;;;;;;;;;;8337813;28;20020;-63
2022/12/10 06:55:41;;;;;;;6.90;5.75;;;;;;;;;;8340855;28;20548;-63
2022/12/10 06:59:41;;;;;;;7.72;5.90;;;;;;;;;;8345552;28;20565;-64
2022/12/10 07:03:42;;;;;;;6.73;5.77;;;;;;;;;;8344887;28;20028;-66
2022/12/10 07:07:42;;;;;;;7.90;5.93;;;;;;;;;;8352979;28;20298;-63
2022/12/10 07:11:43;;;;;;;7.97;5.22;;;;;;;;;;8344981;28;20029;-63
2022/12/10 07:15:43;;;;;;;7.93;6.00;;;;;;;;;;8342238;28;21063;-63
2022/12/10 07:19:44;;;;;;;6.28;5.20;;;;;;;;;;8345253;28;20098;-62
2022/12/10 07:23:44;;;;;;;11.55;6.45;;;;;;;;;;8343601;28;20063;-63
2022/12/10 07:27:44;;;;;;;8.13;5.80;;;;;;;;;;8344223;28;20025;-62
2022/12/10 07:31:45;;;;;;;7.57;5.07;;;;;;;;;;8342587;28;20105;-63
2022/12/10 07:35:45;;;;;;;8.07;5.47;;;;;;;;;;8342043;28;20291;-62
2022/12/10 07:39:46;;;;;;;7.47;5.28;;;;;;;;;;8349429;28;20130;-61
2022/12/10 07:43:46;;;;;;;6.73;5.27;;;;;;;;;;8343396;28;20297;-62
2022/12/10 07:47:47;;;;;;;6.38;5.13;;;;;;;;;;8340090;28;20303;-63
2022/12/10 07:51:50;;;;;;;7.70;5.70;;;;;;;;;;8341493;28;20022;-63
2022/12/10 07:55:50;;;;;;;7.35;5.70;;;;;;;;;;8341653;28;20272;-64
2022/12/10 07:59:51;;;;;;;7.65;5.88;;;;;;;;;;8341065;28;20120;-63
2022/12/10 08:03:52;;;;;;;6.53;4.90;;;;;;;;;;8339914;28;20037;-62
2022/12/10 08:07:52;;;;;;;7.85;5.20;;;;;;;;;;8342531;28;20669;-63
2022/12/10 08:11:52;;;;;;;7.00;4.97;;;;;;;;;;8335575;28;20036;-62
2022/12/10 08:15:53;;;;;;;6.67;5.40;;;;;;;;;;8340361;28;20219;-62
2022/12/10 08:19:54;;;;;;;6.65;5.60;;;;;;;;;;8336953;28;20279;-63
2022/12/10 08:23:55;;;;;;;7.68;5.88;;;;;;;;;;8339547;28;20031;-63
2022/12/10 08:27:56;;;;;;;8.45;5.72;;;;;;;;;;8339794;28;20128;-62
2022/12/10 08:31:56;;;;;;;9.95;6.47;;;;;;;;;;8338323;28;20128;-62
2022/12/10 08:35:57;;;;;;;8.18;5.70;;;;;;;;;;8338967;28;20053;-62
2022/12/10 08:39:57;;;;;;;9.02;6.50;;;;;;;;;;8340922;28;20024;-63
2022/12/10 08:43:57;;;;;;;6.83;5.67;;;;;;;;;;8338218;28;20036;-63
2022/12/10 08:47:57;;;;;;;7.43;5.28;;;;;;;;;;8337619;28;20361;-63
2022/12/10 08:51:58;;;;;;;8.43;6.30;;;;;;;;;;8339849;28;20020;-63
2022/12/10 08:55:58;;;;;;;7.93;5.50;;;;;;;;;;8336365;28;20028;-63
2022/12/10 08:59:58;;;;;;;7.13;5.53;;;;;;;;;;8338404;28;20258;-63
2022/12/10 09:03:59;;;;;;;9.10;6.18;;;;;;;;;;8338238;28;20321;-63
2022/12/10 09:07:59;;;;;;;6.82;5.63;;;;;;;;;;8337087;28;20053;-62
2022/12/10 09:11:59;;;;;;;9.85;5.68;;;;;;;;;;8337581;28;20025;-63
2022/12/10 09:15:59;;;;;;;8.55;5.88;;;;;;;;;;8337683;28;20088;-63
2022/12/10 09:20:00;;;;;;;6.75;5.47;;;;;;;;;;8335718;28;20017;-63
2022/12/10 09:24:00;;;;;;;8.52;5.85;;;;;;;;;;8337691;28;20032;-63
2022/12/10 09:28:00;;;;;;;6.68;5.07;;;;;;;;;;8335990;28;20557;-62
2022/12/10 09:32:00;;;;;;;6.53;5.07;;;;;;;;;;8335130;28;20115;-62
2022/12/10 09:36:02;;;;;;;6.57;5.18;;;;;;;;;;8337394;28;20294;-63
2022/12/10 09:40:03;;;;;;;9.02;6.15;;;;;;;;;;8333732;28;20025;-62
2022/12/10 09:44:15;;;;;;;7.13;5.65;;;;;;;;;;8336178;28;20029;-63
2022/12/10 09:48:28;;;;;;;6.32;5.20;;;;;;;;;;8336585;28;20059;-62
2022/12/10 09:52:34;;;;;;;6.85;5.43;;;;;;;;;;8336257;28;20021;-63
2022/12/10 09:56:36;;;;;;;8.27;5.82;;;;;;;;;;8333479;28;20025;-62
2022/12/10 10:00:38;;;;;;;8.82;6.32;;;;;;;;;;8331391;28;20029;-62
2022/12/10 10:04:38;;;;;;;7.78;5.43;;;;;;;;;;8331405;28;20013;-62
2022/12/10 10:08:38;;;;;;;8.38;5.47;;;;;;;;;;8331603;28;20048;-63
2022/12/10 10:12:38;;;;;;;9.20;5.82;;;;;;;;;;8336198;28;20023;-63
2022/12/10 10:16:42;;;;;;;9.05;6.82;;;;;;;;;;8327053;28;20045;-62
2022/12/10 10:20:42;;;;;;;26.93;21.20;;;;;;;;;;8320094;28;20013;-62
2022/12/10 10:24:47;;;;;;;53.00;35.50;;;;;;;;;;8322777;28;20621;-63
2022/12/10 10:28:48;;;;;;;47.00;33.30;;;;;;;;;;8324424;28;20425;-63
2022/12/10 10:32:51;;;;;;;10.95;7.28;;;;;;;;;;8324239;28;20760;-62
2022/12/10 10:36:56;;;;;;;11.82;7.90;;;;;;;;;;8323982;28;20783;-62
2022/12/10 10:41:00;;;;;;;9.43;6.47;;;;;;;;;;8325021;28;20079;-62
2022/12/10 10:45:01;;;;;;;8.82;6.63;;;;;;;;;;8336011;28;20033;-62
2022/12/10 10:49:19;;;;;;;14.68;10.43;;;;;;;;;;8324664;28;20562;-62
2022/12/10 10:53:31;;;;;;;11.02;7.05;;;;;;;;;;8332927;28;20376;-60
2022/12/10 10:57:36;;;;;;;8.48;5.38;;;;;;;;;;8327634;28;20166;-62
2022/12/10 11:01:47;;;;;;;7.72;6.20;;;;;;;;;;8323087;28;20747;-62
2022/12/10 11:05:48;;;;;;;7.25;5.25;;;;;;;;;;8326100;28;20032;-62
2022/12/10 11:09:48;;;;;;;7.22;5.55;;;;;;;;;;8327581;28;20033;-62
2022/12/10 11:13:50;;;;;;;8.05;5.25;;;;;;;;;;8326432;28;20029;-62
2022/12/10 11:17:51;;;;;;;7.18;5.15;;;;;;;;;;8324038;28;20075;-62
2022/12/10 11:21:51;;;;;;;6.32;5.65;;;;;;;;;;8326126;28;20040;-62
2022/12/10 11:25:51;;;;;;;7.90;5.53;;;;;;;;;;8326541;28;20375;-62
2022/12/10 11:30:17;;;;;;;7.57;5.53;;;;;;;;;;8326718;28;20442;-62
2022/12/10 11:34:36;;;;;;;5.97;5.30;;;;;;;;;;8320103;28;20195;-61
2022/12/10 11:38:45;;;;;;;7.85;5.90;;;;;;;;;;8327686;28;20025;-62
2022/12/10 11:42:46;;;;;;;7.70;5.53;;;;;;;;;;8332313;28;20028;-62
2022/12/10 11:47:05;;;;;;;7.32;5.35;;;;;;;;;;8333445;28;20392;-61
2022/12/10 11:51:08;;;;;;;7.13;5.35;;;;;;;;;;8331287;28;20368;-62
2022/12/10 11:55:31;;;;;;;7.28;5.32;;;;;;;;;;8330424;28;20028;-61
2022/12/10 11:59:36;;;;;;;5.38;4.50;;;;;;;;;;8328555;28;20039;-61
2022/12/10 12:03:43;;;;;;;6.57;5.00;;;;;;;;;;8330441;28;20494;-62
2022/12/10 12:07:54;;;;;;;6.75;5.30;;;;;;;;;;8334528;28;20386;-61
2022/12/10 12:12:12;;;;;;;5.68;4.68;;;;;;;;;;8329416;28;20500;-62
2022/12/10 12:16:15;;;;;;;7.95;5.25;;;;;;;;;;8333094;28;20040;-61
2022/12/10 12:20:24;;;;;;;7.57;5.13;;;;;;;;;;8330571;28;20601;-62
2022/12/10 12:24:28;;;;;;;6.97;5.22;;;;;;;;;;8340789;28;20063;-61
2022/12/10 12:28:32;;;;;;;10.23;5.40;;;;;;;;;;8331777;28;20088;-61
2022/12/10 12:32:59;;;;;;;8.35;5.57;;;;;;;;;;8332014;28;20067;-61
2022/12/10 12:37:01;;;;;;;6.28;4.95;;;;;;;;;;8330132;28;20139;-62
2022/12/10 12:41:04;;;;;;;5.70;4.60;;;;;;;;;;8332478;28;20051;-61
2022/12/10 12:45:16;;;;;;;5.63;4.90;;;;;;;;;;8330636;28;20117;-61
2022/12/10 12:49:37;;;;;;;6.53;5.43;;;;;;;;;;8331248;28;20063;-61
2022/12/10 12:53:38;;;;;;;7.05;5.00;;;;;;;;;;8332793;28;20064;-62
2022/12/10 12:57:38;;;;;;;6.30;4.95;;;;;;;;;;8333086;28;20035;-62
2022/12/10 13:01:38;;;;;;;6.85;4.70;;;;;;;;;;8330021;28;20094;-62
2022/12/10 13:05:39;;;;;;;6.90;5.03;;;;;;;;;;8330841;28;20028;-62
2022/12/10 13:09:46;;;;;;;11.85;8.82;;;;;;;;;;8332432;28;20028;-61
2022/12/10 13:14:03;;;;;;;74.45;52.10;;;;;;;;;;8331695;28;20109;-61
2022/12/10 13:18:10;;;;;;;52.72;32.85;;;;;;;;;;8331663;28;20037;-62
2022/12/10 13:22:11;;;;;;;22.77;13.65;;;;;;;;;;8331578;28;20571;-62
2022/12/10 13:26:25;;;;;;;21.27;15.95;;;;;;;;;;8329676;28;20378;-62
2022/12/10 13:30:36;;;;;;;12.40;9.35;;;;;;;;;;8331808;28;20033;-62
2022/12/10 13:34:36;;;;;;;10.45;7.35;;;;;;;;;;8331733;28;20112;-62
2022/12/10 13:38:41;;;;;;;9.65;5.97;;;;;;;;;;8329698;28;20809;-61
2022/12/10 13:47:11;;;;;;;9.77;7.75;;;;;;;;;;8328067;28;20090;-62
2022/12/10 13:51:23;;;;;;;9.50;7.28;;;;;;;;;;8331108;28;20025;-62
2022/12/10 13:55:46;;;;;;;6.13;5.15;;;;;;;;;;8329934;28;20059;-62
2022/12/10 14:00:05;;;;;;;6.68;4.78;;;;;;;;;;8324729;28;20102;-62
2022/12/10 14:04:14;;;;;;;5.57;4.28;;;;;;;;;;8327906;28;20041;-63
2022/12/10 14:08:17;;;;;;;8.70;4.78;;;;;;;;;;8328720;28;20633;-62
2022/12/10 14:12:19;;;;;;;4.38;3.97;;;;;;;;;;8329805;28;20036;-62
2022/12/10 14:16:21;;;;;;;5.20;4.25;;;;;;;;;;8328676;28;20148;-62
2022/12/10 14:20:22;;;;;;;6.75;5.03;;;;;;;;;;8330447;28;20088;-62
2022/12/10 14:24:26;;;;;;;5.25;4.28;;;;;;;;;;8325688;28;20116;-62
2022/12/10 14:28:26;;;;;;;6.85;4.57;;;;;;;;;;8333173;28;20017;-62
2022/12/10 14:32:31;;;;;;;6.90;4.50;;;;;;;;;;8327982;28;20579;-62
2022/12/10 14:36:37;;;;;;;6.40;4.88;;;;;;;;;;8334471;28;20033;-61
2022/12/10 14:40:39;;;;;;;7.93;5.53;;;;;;;;;;8337158;28;20021;-61
2022/12/10 14:44:39;;;;;;;8.13;5.00;;;;;;;;;;8334208;28;20021;-63
2022/12/10 14:48:40;;;;;;;8.15;5.00;;;;;;;;;;8333370;28;20068;-61
2022/12/10 14:52:42;;;;;;;7.82;5.25;;;;;;;;;;8326879;28;20629;-61
2022/12/10 14:56:42;;;;;;;7.78;5.18;;;;;;;;;;8326090;28;20612;-62
2022/12/10 15:00:43;;;;;;;9.07;6.63;;;;;;;;;;8327566;28;20037;-62
2022/12/10 15:04:45;;;;;;;24.52;14.27;;;;;;;;;;8324080;28;20402;-61
2022/12/10 15:08:46;;;;;;;13.50;7.95;;;;;;;;;;8325951;28;20074;-61
2022/12/10 15:12:49;;;;;;;10.75;6.53;;;;;;;;;;8326163;28;20025;-61
2022/12/10 15:16:49;;;;;;;7.60;6.10;;;;;;;;;;8327951;28;20044;-61
2022/12/10 15:20:53;;;;;;;8.73;5.72;;;;;;;;;;8338356;28;20765;-61
2022/12/10 15:24:54;;;;;;;;;;;;;;;;;;8339035;28;20873;-61
2022/12/10 15:29:13;;;;;;;6.50;5.55;;;;;;;;;;8340457;28;19912;-61
2022/12/10 15:33:33;;;;;;;7.25;5.30;;;;;;;;;;8340161;28;20041;-63
2022/12/10 15:37:34;;;;;;;7.68;5.85;;;;;;;;;;8340732;28;20055;-62
2022/12/10 15:41:42;;;;;;;7.80;5.68;;;;;;;;;;8337947;28;20024;-64
2022/12/10 15:45:42;;;;;;;7.78;5.70;;;;;;;;;;8339645;28;20099;-62
2022/12/10 15:49:42;;;;;;;9.80;6.30;;;;;;;;;;8337913;28;20032;-61
2022/12/10 15:53:43;;;;;;;8.88;6.75;;;;;;;;;;8339913;28;20872;-62
2022/12/10 15:57:48;;;;;;;10.52;6.55;;;;;;;;;;8339651;28;20135;-61
2022/12/10 16:01:48;;;;;;;12.70;7.75;;;;;;;;;;8339877;28;20082;-61
2022/12/10 16:05:49;;;;;;;13.55;8.05;;;;;;;;;;8338206;28;20103;-62
2022/12/10 16:09:49;;;;;;;13.25;8.88;;;;;;;;;;8338016;28;20044;-61
2022/12/10 16:13:51;;;;;;;16.83;11.10;;;;;;;;;;8337165;28;20024;-62
2022/12/10 16:17:52;;;;;;;13.15;8.30;;;;;;;;;;8337700;28;20351;-62
2022/12/10 16:21:52;;;;;;;13.88;7.95;;;;;;;;;;8336720;28;20044;-61
2022/12/10 16:25:52;;;;;;;10.73;7.20;;;;;;;;;;8338291;28;20028;-61
2022/12/10 16:29:52;;;;;;;9.23;6.80;;;;;;;;;;8337385;28;20669;-61
2022/12/10 16:33:55;;;;;;;11.15;6.88;;;;;;;;;;8334822;28;20037;-61
2022/12/10 16:37:55;;;;;;;9.50;7.05;;;;;;;;;;8338282;28;20108;-62
2022/12/10 16:41:55;;;;;;;18.48;13.25;;;;;;;;;;8343698;28;20062;-62
2022/12/10 16:45:56;;;;;;;26.65;15.57;;;;;;;;;;8338714;28;20096;-61
2022/12/10 16:49:56;;;;;;;19.00;12.65;;;;;;;;;;8345353;28;20021;-61
2022/12/10 16:53:56;;;;;;;16.13;10.52;;;;;;;;;;8337471;28;20032;-62
2022/12/10 16:57:57;;;;;;;14.25;9.30;;;;;;;;;;8338043;28;20032;-62
2022/12/10 17:01:57;;;;;;;13.55;8.23;;;;;;;;;;8338464;28;20219;-62
2022/12/10 17:05:59;;;;;;;10.68;6.97;;;;;;;;;;8337276;28;20021;-61
2022/12/10 17:09:59;;;;;;;12.40;7.35;;;;;;;;;;8336474;28;20020;-61
2022/12/10 17:13:59;;;;;;;13.88;8.93;;;;;;;;;;8337281;28;20059;-61
2022/12/10 17:18:01;;;;;;;16.92;9.90;;;;;;;;;;8334869;28;20774;-62
2022/12/10 17:22:02;;;;;;;13.68;9.15;;;;;;;;;;8338880;28;20901;-62
2022/12/10 17:26:03;;;;;;;16.30;9.75;;;;;;;;;;8334193;28;20063;-61
2022/12/10 17:30:04;;;;;;;13.93;8.80;;;;;;;;;;8337658;28;20029;-61
2022/12/10 17:34:05;;;;;;;9.18;7.03;;;;;;;;;;8334750;28;20040;-62
2022/12/10 17:38:06;;;;;;;9.95;7.00;;;;;;;;;;8332660;28;20486;-61
2022/12/10 17:42:07;;;;;;;9.23;6.72;;;;;;;;;;8334665;28;20037;-61
2022/12/10 17:46:08;;;;;;;18.25;10.10;;;;;;;;;;8336252;28;20045;-61
2022/12/10 17:50:24;;;;;;;11.48;7.90;;;;;;;;;;8334542;28;20850;-61
2022/12/10 17:54:24;;;;;;;14.65;9.63;;;;;;;;;;8332560;28;20037;-62
2022/12/10 17:58:25;;;;;;;13.05;8.48;;;;;;;;;;8333637;28;20021;-61
2022/12/10 18:02:26;;;;;;;11.77;7.78;;;;;;;;;;8333973;28;20877;-61
2022/12/10 18:06:28;;;;;;;11.77;7.15;;;;;;;;;;8334069;28;20074;-61
2022/12/10 18:10:29;;;;;;;9.95;6.95;;;;;;;;;;8336049;28;20136;-61
2022/12/10 18:14:29;;;;;;;9.77;7.05;;;;;;;;;;8335193;28;20129;-61
2022/12/10 18:18:29;;;;;;;9.17;5.90;;;;;;;;;;8335433;28;20040;-62
2022/12/10 18:22:30;;;;;;;8.15;6.10;;;;;;;;;;8335200;28;20273;-61
2022/12/10 18:26:31;;;;;;;10.57;6.22;;;;;;;;;;8334748;28;20036;-61
2022/12/10 18:30:31;;;;;;;9.23;6.47;;;;;;;;;;8332393;28;20036;-61
2022/12/10 18:34:31;;;;;;;11.02;7.30;;;;;;;;;;8335286;28;20032;-61
2022/12/10 18:38:31;;;;;;;10.52;7.15;;;;;;;;;;8337498;28;20017;-61
2022/12/10 18:42:32;;;;;;;9.43;6.55;;;;;;;;;;8335275;28;20028;-61
2022/12/10 18:46:35;;;;;;;11.13;7.93;;;;;;;;;;8334807;28;20048;-61
2022/12/10 18:50:35;;;;;;;12.30;8.70;;;;;;;;;;8337945;28;21289;-61
2022/12/10 18:54:35;;;;;;;9.45;7.38;;;;;;;;;;8342776;28;20686;-61
2022/12/10 18:58:35;;;;;;;17.20;10.02;;;;;;;;;;8343329;28;20028;-61
2022/12/10 19:02:36;;;;;;;21.05;14.52;;;;;;;;;;8343603;28;20194;-62
2022/12/10 19:06:37;;;;;;;26.70;17.08;;;;;;;;;;8340251;28;20028;-61
2022/12/10 19:10:37;;;;;;;17.30;10.30;;;;;;;;;;8341994;28;20756;-60
2022/12/10 19:14:37;;;;;;;13.13;8.55;;;;;;;;;;8342592;28;20028;-62
2022/12/10 19:18:38;;;;;;;14.68;9.18;;;;;;;;;;8341583;28;20041;-60
2022/12/10 19:22:38;;;;;;;14.95;9.57;;;;;;;;;;8341043;28;20025;-61
2022/12/10 19:26:39;;;;;;;15.85;10.27;;;;;;;;;;8340545;28;20484;-61
2022/12/10 19:30:39;;;;;;;16.08;9.73;;;;;;;;;;8339327;28;20032;-61
2022/12/10 19:34:39;;;;;;;18.05;11.25;;;;;;;;;;8343317;28;20072;-61
2022/12/10 19:38:39;;;;;;;16.77;9.07;;;;;;;;;;8339308;28;20473;-60
2022/12/10 19:42:39;;;;;;;16.73;10.27;;;;;;;;;;8342581;28;20033;-61
2022/12/10 19:46:40;;;;;;;13.80;8.10;;;;;;;;;;8337379;28;20131;-61
2022/12/10 19:50:40;;;;;;;13.23;8.60;;;;;;;;;;8339323;28;20028;-61
2022/12/10 19:54:40;;;;;;;13.57;9.02;;;;;;;;;;8338243;28;20288;-61
2022/12/10 19:58:40;;;;;;;13.15;8.35;;;;;;;;;;8339564;28;20048;-60
2022/12/10 20:02:40;;;;;;;12.50;8.57;;;;;;;;;;8339178;28;20077;-61
2022/12/10 20:06:42;;;;;;;12.52;8.10;;;;;;;;;;8340080;28;20032;-61
2022/12/10 20:10:42;;;;;;;13.75;8.85;;;;;;;;;;8338277;28;20027;-60
2022/12/10 20:14:42;;;;;;;14.40;8.23;;;;;;;;;;8338494;28;20725;-61
2022/12/10 20:18:43;;;;;;;13.10;8.63;;;;;;;;;;8337427;28;20826;-61
2022/12/10 20:22:44;;;;;;;13.13;8.20;;;;;;;;;;8340841;28;20090;-61
2022/12/10 20:26:46;;;;;;;16.77;9.32;;;;;;;;;;8337871;28;20082;-61
2022/12/10 20:30:46;;;;;;;14.63;8.05;;;;;;;;;;8338724;28;20132;-61
2022/12/10 20:34:46;;;;;;;13.77;8.27;;;;;;;;;;8336566;28;20033;-61
2022/12/10 20:38:47;;;;;;;14.73;8.63;;;;;;;;;;8338999;28;20063;-60
2022/12/10 20:42:47;;;;;;;14.43;8.18;;;;;;;;;;8348335;28;20267;-61
2022/12/10 20:46:48;;;;;;;15.85;8.70;;;;;;;;;;8337110;28;20047;-61
2022/12/10 20:50:48;;;;;;;15.38;8.10;;;;;;;;;;8345156;28;20035;-61
2022/12/10 20:54:48;;;;;;;13.52;8.55;;;;;;;;;;8336904;28;20025;-61
2022/12/10 20:58:49;;;;;;;14.82;9.07;;;;;;;;;;8339072;28;20841;-62
2022/12/10 21:02:50;;;;;;;15.15;9.20;;;;;;;;;;8339193;28;20084;-62
2022/12/10 21:06:51;;;;;;;22.45;11.55;;;;;;;;;;8338932;28;20082;-61
2022/12/10 21:10:51;;;;;;;31.73;14.15;;;;;;;;;;8337832;28;20425;-61
2022/12/10 21:14:51;;;;;;;22.58;11.80;;;;;;;;;;8335778;28;20677;-61
2022/12/10 21:18:52;;;;;;;13.40;8.75;;;;;;;;;;8334862;28;20064;-61
2022/12/10 21:22:53;;;;;;;18.95;10.38;;;;;;;;;;8340071;28;20460;-61
2022/12/10 21:26:53;;;;;;;19.27;10.60;;;;;;;;;;8338376;28;20139;-61
2022/12/10 21:30:53;;;;;;;22.55;12.10;;;;;;;;;;8338836;28;20032;-61
2022/12/10 21:34:53;;;;;;;19.38;9.82;;;;;;;;;;8337303;28;20320;-61
2022/12/10 21:38:54;;;;;;;17.92;9.32;;;;;;;;;;8337705;28;20054;-61
2022/12/10 21:47:14;;;;;;;22.40;12.10;;;;;;;;;;8336198;28;20160;-60
2022/12/10 21:51:15;;;;;;;23.42;12.93;;;;;;;;;;8336009;28;20045;-60
2022/12/10 21:55:15;;;;;;;20.15;11.32;;;;;;;;;;8337422;28;20410;-61
2022/12/10 21:59:15;;;;;;;24.10;12.50;;;;;;;;;;8337907;28;20037;-61
2022/12/10 22:03:15;;;;;;;18.05;10.07;;;;;;;;;;8335154;28;20049;-60
2022/12/10 22:07:16;;;;;;;17.65;9.50;;;;;;;;;;8337030;28;20024;-62
2022/12/10 22:11:17;;;;;;;17.58;9.70;;;;;;;;;;8334874;28;20446;-62
2022/12/10 22:15:17;;;;;;;18.92;10.05;;;;;;;;;;8337423;28;20107;-61
2022/12/10 22:19:18;;;;;;;15.10;9.25;;;;;;;;;;8336773;28;20021;-61
2022/12/10 22:23:18;;;;;;;18.60;10.02;;;;;;;;;;8337041;28;20033;-61
2022/12/10 22:27:18;;;;;;;17.40;9.93;;;;;;;;;;8338104;28;20115;-64
2022/12/10 22:31:18;;;;;;;16.17;8.88;;;;;;;;;;8336758;28;20033;-61
2022/12/10 22:35:19;;;;;;;17.50;9.40;;;;;;;;;;8334854;28;20115;-60
2022/12/10 22:39:19;;;;;;;21.25;8.88;;;;;;;;;;8337950;28;20020;-61
2022/12/10 22:43:19;;;;;;;14.57;8.70;;;;;;;;;;8337751;28;20025;-61
2022/12/10 22:47:19;;;;;;;14.30;8.98;;;;;;;;;;8335963;28;20918;-61
2022/12/10 22:51:20;;;;;;;14.30;8.67;;;;;;;;;;8336352;28;20032;-61
2022/12/10 22:55:20;;;;;;;18.55;9.70;;;;;;;;;;8334157;28;20278;-61
2022/12/10 22:59:20;;;;;;;14.55;9.10;;;;;;;;;;8336096;28;20024;-61
2022/12/10 23:03:21;;;;;;;15.90;9.20;;;;;;;;;;8338757;28;20037;-61
2022/12/10 23:07:22;;;;;;;13.63;8.95;;;;;;;;;;8337942;28;20695;-61
2022/12/10 23:11:22;;;;;;;14.38;8.75;;;;;;;;;;8337264;28;20017;-62
2022/12/10 23:15:22;;;;;;;17.30;9.73;;;;;;;;;;8335822;28;20033;-61
2022/12/10 23:19:23;;;;;;;15.30;8.65;;;;;;;;;;8335176;28;20013;-61
2022/12/10 23:23:24;;;;;;;17.20;9.57;;;;;;;;;;8336995;28;20025;-61
2022/12/10 23:27:24;;;;;;;16.58;9.98;;;;;;;;;;8339022;28;20456;-61
2022/12/10 23:31:24;;;;;;;17.67;10.13;;;;;;;;;;8332831;28;20036;-61
2022/12/10 23:35:24;;;;;;;19.92;11.02;;;;;;;;;;8335147;28;20028;-60
2022/12/10 23:39:26;;;;;;;14.25;8.70;;;;;;;;;;8337937;28;20029;-61
2022/12/10 23:43:26;;;;;;;19.00;10.32;;;;;;;;;;8340761;28;20029;-60
2022/12/10 23:47:26;;;;;;;14.32;9.05;;;;;;;;;;8343610;28;20044;-61
2022/12/10 23:51:27;;;;;;;18.02;9.18;;;;;;;;;;8339565;28;20020;-62
2022/12/10 23:55:27;;;;;;;16.95;9.65;;;;;;;;;;8339342;28;20055;-62
2022/12/10 23:59:27;;;;;;;15.93;9.25;;;;;;;;;;8338276;28;20726;-61
